createdAt,value
2018-11-01T07:35:58.496Z,83.20
2018-11-01T07:41:01.712Z,82.20
2018-11-01T07:46:04.963Z,82.40
2018-11-01T07:51:08.171Z,82.30
2018-11-01T07:56:11.368Z,81.90
2018-11-01T08:01:14.654Z,80.60
2018-11-01T08:06:17.869Z,81.60
2018-11-01T08:11:21.096Z,81.30
2018-11-01T08:16:24.287Z,79.20
2018-11-01T08:21:27.502Z,76.40
2018-11-01T08:26:30.715Z,73.70
2018-11-01T08:31:33.923Z,71.20
2018-11-01T08:36:37.120Z,69.60
2018-11-01T08:41:40.363Z,69.70
2018-11-01T08:46:43.588Z,70.20
2018-11-01T08:51:46.895Z,67.50
2018-11-01T08:56:50.249Z,65.20
2018-11-01T09:01:53.544Z,64.80
2018-11-01T09:06:56.809Z,64.30
2018-11-01T09:12:00.280Z,64.50
2018-11-01T09:17:03.753Z,67.30
2018-11-01T09:22:07.524Z,68.70
2018-11-01T09:27:10.946Z,70.40
2018-11-01T09:32:14.214Z,70.70
2018-11-01T09:37:17.614Z,70.80
2018-11-01T09:42:21.143Z,73.70
2018-11-01T09:47:24.693Z,73.30
2018-11-01T09:52:27.568Z,71.90
2018-11-01T09:57:30.868Z,72.30
2018-11-01T10:02:34.083Z,71.40
2018-11-01T10:07:37.660Z,72.60
2018-11-01T10:12:41.268Z,73.30
2018-11-01T10:17:45.085Z,73.20
2018-11-01T10:22:47.941Z,75.20
2018-11-01T10:27:51.103Z,75.60
2018-11-01T10:32:54.368Z,75.70
2018-11-01T10:37:57.585Z,75.00
2018-11-01T10:43:00.871Z,75.10
2018-11-01T10:48:04.098Z,75.50
2018-11-01T10:53:07.315Z,74.40
2018-11-01T10:58:10.547Z,74.70
2018-11-01T11:03:13.772Z,74.50
2018-11-01T11:08:16.979Z,74.70
2018-11-01T11:13:20.196Z,74.50
2018-11-01T11:18:23.409Z,75.20
2018-11-01T11:23:26.828Z,75.30
2018-11-01T11:28:30.067Z,75.60
2018-11-01T11:33:33.285Z,75.50
2018-11-01T11:38:36.649Z,74.70
2018-11-01T11:43:39.900Z,73.70
2018-11-01T11:48:43.124Z,74.10
2018-11-01T11:53:46.393Z,73.80
2018-11-01T11:58:49.579Z,75.40
2018-11-01T12:03:52.815Z,76.30
2018-11-01T12:08:56.045Z,76.40
2018-11-01T12:13:59.266Z,75.70
2018-11-01T12:19:02.460Z,76.30
2018-11-01T12:24:05.890Z,76.80
2018-11-01T12:29:09.108Z,77.60
2018-11-01T12:34:12.395Z,79.10
2018-11-01T12:39:15.620Z,79.60
2018-11-01T12:44:18.928Z,80.20
2018-11-01T12:49:22.147Z,79.70
2018-11-01T12:54:25.367Z,79.90
2018-11-01T12:59:28.733Z,80.20
2018-11-01T13:04:31.971Z,79.70
2018-11-01T13:09:35.197Z,80.60
2018-11-01T13:14:38.498Z,81.10
2018-11-01T13:19:41.711Z,82.40
2018-11-01T13:24:45.028Z,82.60
2018-11-01T13:29:48.435Z,83.20
2018-11-01T13:34:51.665Z,83.20
2018-11-01T13:39:55.351Z,82.30
2018-11-01T13:44:58.447Z,82.20
2018-11-01T13:50:01.738Z,82.40
2018-11-01T13:55:06.259Z,82.70
2018-11-01T14:00:10.525Z,81.60
2018-11-01T14:05:14.956Z,82.20
2018-11-01T14:10:18.176Z,82.60
2018-11-01T14:15:21.874Z,83.10
2018-11-01T14:20:24.728Z,83.70
2018-11-01T14:25:28.013Z,84.00
2018-11-01T14:30:31.172Z,84.70
2018-11-01T14:35:34.467Z,85.20
2018-11-01T14:40:37.696Z,87.40
2018-11-01T14:45:40.937Z,89.80
2018-11-01T14:50:44.189Z,91.50
2018-11-01T14:55:48.960Z,93.30
2018-11-01T15:00:51.838Z,94.80
2018-11-01T15:05:55.108Z,96.20
2018-11-01T15:10:58.469Z,97.50
2018-11-01T15:16:01.978Z,97.50
2018-11-01T15:21:05.448Z,97.50
2018-11-01T15:26:09.176Z,97.50
2018-11-01T15:31:12.666Z,97.50
2018-11-01T15:36:16.312Z,97.50
2018-11-01T15:41:19.645Z,97.50
2018-11-01T15:46:22.876Z,97.50
2018-11-01T15:51:26.364Z,97.50
2018-11-01T15:56:29.868Z,97.50
2018-11-01T16:01:33.237Z,97.50
2018-11-01T16:06:36.710Z,97.50
2018-11-01T16:11:40.112Z,97.50
2018-11-01T16:16:43.552Z,97.50
2018-11-01T16:21:46.894Z,97.50
2018-11-01T16:26:50.684Z,97.50
2018-11-01T16:31:53.991Z,97.50
2018-11-01T16:36:57.345Z,97.50
2018-11-01T16:42:00.585Z,97.50
2018-11-01T16:47:03.867Z,97.50
2018-11-01T16:52:07.288Z,97.50
2018-11-01T16:57:10.654Z,97.50
2018-11-01T17:02:13.904Z,97.50
2018-11-01T17:07:17.279Z,97.50
2018-11-01T17:12:20.590Z,97.50
2018-11-01T17:17:23.808Z,97.50
2018-11-01T17:22:27.052Z,97.50
2018-11-01T17:27:30.535Z,97.50
2018-11-01T17:32:37.722Z,97.50
2018-11-01T17:37:41.073Z,97.50
2018-11-01T17:42:44.914Z,97.50
2018-11-01T17:47:48.119Z,97.50
2018-11-01T17:52:51.369Z,97.50
2018-11-01T17:57:54.763Z,97.50
2018-11-01T18:02:58.412Z,97.50
2018-11-01T18:08:01.583Z,97.50
2018-11-01T18:13:04.887Z,97.50
2018-11-01T18:18:08.099Z,97.50
2018-11-01T18:23:11.584Z,97.50
2018-11-01T18:28:15.194Z,97.50
2018-11-01T18:33:18.706Z,97.50
2018-11-01T18:38:22.015Z,97.50
2018-11-01T18:43:25.360Z,97.50
2018-11-01T18:48:28.845Z,97.50
2018-11-01T18:53:32.304Z,97.50
2018-11-01T18:58:35.676Z,97.50
2018-11-01T19:03:39.041Z,97.50
2018-11-01T19:08:42.447Z,97.50
2018-11-01T19:13:46.064Z,97.50
2018-11-01T19:18:49.204Z,97.50
2018-11-01T19:23:52.700Z,97.50
2018-11-01T19:28:56.018Z,97.50
2018-11-01T19:33:59.493Z,97.50
2018-11-01T19:39:02.999Z,97.50
2018-11-01T19:44:06.610Z,97.50
2018-11-01T19:49:09.825Z,97.50
2018-11-01T19:54:13.300Z,97.50
2018-11-01T19:59:16.777Z,97.50
2018-11-01T20:04:20.129Z,97.50
2018-11-01T20:09:23.472Z,97.50
2018-11-01T20:14:26.971Z,97.50
2018-11-01T20:19:30.313Z,97.50
2018-11-01T20:24:33.451Z,97.50
2018-11-01T20:29:36.703Z,97.50
2018-11-01T20:34:40.148Z,97.50
2018-11-01T20:39:43.386Z,97.50
2018-11-01T20:44:46.735Z,97.50
2018-11-01T20:49:50.233Z,97.50
2018-11-01T20:54:53.391Z,97.50
2018-11-01T20:59:56.610Z,97.50
2018-11-01T21:04:59.978Z,97.50
2018-11-01T21:10:03.268Z,97.50
2018-11-01T21:15:08.155Z,97.50
2018-11-01T21:20:11.455Z,97.50
2018-11-01T21:25:14.671Z,97.50
2018-11-01T21:30:17.907Z,97.50
2018-11-01T21:35:21.232Z,97.50
2018-11-01T21:40:24.323Z,97.50
2018-11-01T21:45:27.523Z,97.50
2018-11-01T21:50:30.848Z,97.50
2018-11-01T21:55:34.079Z,97.50
2018-11-01T22:00:37.288Z,97.50
2018-11-01T22:05:40.508Z,97.50
2018-11-01T22:10:43.703Z,97.50
2018-11-01T22:15:46.934Z,97.50
2018-11-01T22:20:50.167Z,97.50
2018-11-01T22:25:53.407Z,97.50
2018-11-01T22:30:56.768Z,97.50
2018-11-01T22:35:59.984Z,97.50
2018-11-01T22:41:03.192Z,97.50
2018-11-01T22:46:06.416Z,97.50
2018-11-01T22:51:09.652Z,97.50
2018-11-01T22:56:12.867Z,97.50
2018-11-01T23:01:16.062Z,97.50
2018-11-01T23:06:19.356Z,97.50
2018-11-01T23:11:22.610Z,97.50
2018-11-01T23:16:25.819Z,97.50
2018-11-01T23:21:29.040Z,97.50
2018-11-01T23:26:32.367Z,97.50
2018-11-01T23:31:35.596Z,97.50
2018-11-01T23:36:44.293Z,97.50
2018-11-01T23:41:52.938Z,97.50
2018-11-01T23:47:01.583Z,97.50
2018-11-01T23:52:09.581Z,97.50
2018-11-01T23:57:12.784Z,97.50
